sensor_id;sensor_type;location;lat;lon;timestamp;temperature;humidity
59313;DHT22;45084;51.486;7.366;2024-03-08T00:00:53;2.00;99.90
59313;DHT22;45084;51.486;7.366;2024-03-08T00:03:19;2.00;99.90
59313;DHT22;45084;51.486;7.366;2024-03-08T00:05:48;2.00;99.90
59313;DHT22;45084;51.486;7.366;2024-03-08T00:08:17;2.10;99.90
59313;DHT22;45084;51.486;7.366;2024-03-08T00:10:44;2.00;99.90
59313;DHT22;45084;51.486;7.366;2024-03-08T00:13:10;1.90;99.90
59313;DHT22;45084;51.486;7.366;2024-03-08T00:15:39;1.80;99.90
59313;DHT22;45084;51.486;7.366;2024-03-08T00:18:04;1.80;99.90
59313;DHT22;45084;51.486;7.366;2024-03-08T00:20:31;1.80;99.90
59313;DHT22;45084;51.486;7.366;2024-03-08T00:22:58;1.70;99.90
59313;DHT22;45084;51.486;7.366;2024-03-08T00:25:27;1.70;99.90
59313;DHT22;45084;51.486;7.366;2024-03-08T00:27:54;1.70;99.90
59313;DHT22;45084;51.486;7.366;2024-03-08T00:30:26;1.70;99.90
59313;DHT22;45084;51.486;7.366;2024-03-08T00:32:54;1.60;99.90
59313;DHT22;45084;51.486;7.366;2024-03-08T00:35:21;1.50;99.90
59313;DHT22;45084;51.486;7.366;2024-03-08T00:37:51;1.50;99.90
59313;DHT22;45084;51.486;7.366;2024-03-08T00:40:16;1.60;99.90
59313;DHT22;45084;51.486;7.366;2024-03-08T00:42:43;1.50;99.90
59313;DHT22;45084;51.486;7.366;2024-03-08T00:45:11;1.50;99.90
59313;DHT22;45084;51.486;7.366;2024-03-08T00:47:38;1.40;99.90
59313;DHT22;45084;51.486;7.366;2024-03-08T00:50:05;1.40;99.90
59313;DHT22;45084;51.486;7.366;2024-03-08T00:52:32;1.30;99.90
59313;DHT22;45084;51.486;7.366;2024-03-08T00:55:01;1.30;99.90
59313;DHT22;45084;51.486;7.366;2024-03-08T00:57:28;1.30;99.90
59313;DHT22;45084;51.486;7.366;2024-03-08T00:59:55;1.20;99.90
59313;DHT22;45084;51.486;7.366;2024-03-08T01:02:22;1.30;99.90
59313;DHT22;45084;51.486;7.366;2024-03-08T01:04:51;1.10;99.90
59313;DHT22;45084;51.486;7.366;2024-03-08T01:07:18;1.20;99.90
59313;DHT22;45084;51.486;7.366;2024-03-08T01:09:45;1.30;99.90
59313;DHT22;45084;51.486;7.366;2024-03-08T01:12:11;1.40;99.90
59313;DHT22;45084;51.486;7.366;2024-03-08T01:14:40;1.50;99.90
59313;DHT22;45084;51.486;7.366;2024-03-08T01:17:07;1.60;99.90
59313;DHT22;45084;51.486;7.366;2024-03-08T01:19:34;1.50;99.90
59313;DHT22;45084;51.486;7.366;2024-03-08T01:22:02;1.50;99.90
59313;DHT22;45084;51.486;7.366;2024-03-08T01:24:30;1.40;99.90
59313;DHT22;45084;51.486;7.366;2024-03-08T01:26:58;1.50;99.90
59313;DHT22;45084;51.486;7.366;2024-03-08T01:29:26;1.50;99.90
59313;DHT22;45084;51.486;7.366;2024-03-08T01:31:54;1.70;99.90
59313;DHT22;45084;51.486;7.366;2024-03-08T01:34:21;1.70;99.90
59313;DHT22;45084;51.486;7.366;2024-03-08T01:36:51;1.60;99.90
59313;DHT22;45084;51.486;7.366;2024-03-08T01:39:17;1.70;99.90
59313;DHT22;45084;51.486;7.366;2024-03-08T01:41:46;1.70;99.90
59313;DHT22;45084;51.486;7.366;2024-03-08T01:44:14;1.80;99.90
59313;DHT22;45084;51.486;7.366;2024-03-08T01:46:50;1.70;99.90
59313;DHT22;45084;51.486;7.366;2024-03-08T01:49:20;1.60;99.90
59313;DHT22;45084;51.486;7.366;2024-03-08T01:51:49;1.60;99.90
59313;DHT22;45084;51.486;7.366;2024-03-08T01:54:22;1.50;99.90
59313;DHT22;45084;51.486;7.366;2024-03-08T01:56:50;1.60;99.90
59313;DHT22;45084;51.486;7.366;2024-03-08T01:59:17;1.60;99.90
59313;DHT22;45084;51.486;7.366;2024-03-08T02:01:46;1.60;99.90
59313;DHT22;45084;51.486;7.366;2024-03-08T02:04:13;1.50;99.90
59313;DHT22;45084;51.486;7.366;2024-03-08T02:06:41;1.50;99.90
59313;DHT22;45084;51.486;7.366;2024-03-08T02:09:08;1.40;99.90
59313;DHT22;45084;51.486;7.366;2024-03-08T02:11:35;1.40;99.90
59313;DHT22;45084;51.486;7.366;2024-03-08T02:14:06;1.30;99.90
59313;DHT22;45084;51.486;7.366;2024-03-08T02:16:33;1.20;99.90
59313;DHT22;45084;51.486;7.366;2024-03-08T02:19:04;1.20;99.90
59313;DHT22;45084;51.486;7.366;2024-03-08T02:21:30;1.20;99.90
59313;DHT22;45084;51.486;7.366;2024-03-08T02:23:58;1.10;99.90
59313;DHT22;45084;51.486;7.366;2024-03-08T02:26:25;1.00;99.90
59313;DHT22;45084;51.486;7.366;2024-03-08T02:28:54;1.00;99.90
59313;DHT22;45084;51.486;7.366;2024-03-08T02:31:20;0.90;99.90
59313;DHT22;45084;51.486;7.366;2024-03-08T02:33:50;0.90;99.90
59313;DHT22;45084;51.486;7.366;2024-03-08T02:36:17;1.00;99.90
59313;DHT22;45084;51.486;7.366;2024-03-08T02:38:42;1.00;99.90
59313;DHT22;45084;51.486;7.366;2024-03-08T02:41:09;1.10;99.90
59313;DHT22;45084;51.486;7.366;2024-03-08T02:43:37;1.10;99.90
59313;DHT22;45084;51.486;7.366;2024-03-08T02:46:08;1.10;99.90
59313;DHT22;45084;51.486;7.366;2024-03-08T02:48:33;1.10;99.90
59313;DHT22;45084;51.486;7.366;2024-03-08T02:51:00;1.00;99.90
59313;DHT22;45084;51.486;7.366;2024-03-08T02:53:28;0.90;99.90
59313;DHT22;45084;51.486;7.366;2024-03-08T02:55:57;1.00;99.90
59313;DHT22;45084;51.486;7.366;2024-03-08T02:58:25;1.00;99.90
59313;DHT22;45084;51.486;7.366;2024-03-08T03:00:52;0.90;99.90
59313;DHT22;45084;51.486;7.366;2024-03-08T03:03:21;1.00;99.90
59313;DHT22;45084;51.486;7.366;2024-03-08T03:05:50;0.90;99.90
59313;DHT22;45084;51.486;7.366;2024-03-08T03:08:16;1.00;99.90
59313;DHT22;45084;51.486;7.366;2024-03-08T03:10:45;1.00;99.90
59313;DHT22;45084;51.486;7.366;2024-03-08T03:13:14;0.90;99.90
59313;DHT22;45084;51.486;7.366;2024-03-08T03:15:41;0.90;99.90
59313;DHT22;45084;51.486;7.366;2024-03-08T03:18:12;0.90;99.90
59313;DHT22;45084;51.486;7.366;2024-03-08T03:20:39;0.70;99.90
59313;DHT22;45084;51.486;7.366;2024-03-08T03:23:13;0.80;99.90
59313;DHT22;45084;51.486;7.366;2024-03-08T03:25:42;0.70;99.90
59313;DHT22;45084;51.486;7.366;2024-03-08T03:28:11;0.60;99.90
59313;DHT22;45084;51.486;7.366;2024-03-08T03:30:46;0.60;99.90
59313;DHT22;45084;51.486;7.366;2024-03-08T03:33:15;0.50;99.90
59313;DHT22;45084;51.486;7.366;2024-03-08T03:35:43;0.40;99.90
59313;DHT22;45084;51.486;7.366;2024-03-08T03:38:12;0.30;99.90
59313;DHT22;45084;51.486;7.366;2024-03-08T03:40:40;0.40;99.90
59313;DHT22;45084;51.486;7.366;2024-03-08T03:43:06;0.40;99.90
59313;DHT22;45084;51.486;7.366;2024-03-08T03:45:33;0.30;99.90
59313;DHT22;45084;51.486;7.366;2024-03-08T03:48:06;0.20;99.90
59313;DHT22;45084;51.486;7.366;2024-03-08T03:50:36;0.10;99.90
59313;DHT22;45084;51.486;7.366;2024-03-08T03:53:03;0.10;99.90
59313;DHT22;45084;51.486;7.366;2024-03-08T03:55:32;0.10;99.90
59313;DHT22;45084;51.486;7.366;2024-03-08T03:58:01;0.10;99.90
59313;DHT22;45084;51.486;7.366;2024-03-08T04:00:28;0.00;99.90
59313;DHT22;45084;51.486;7.366;2024-03-08T04:02:55;0.00;99.90
59313;DHT22;45084;51.486;7.366;2024-03-08T04:05:25;0.00;99.90
59313;DHT22;45084;51.486;7.366;2024-03-08T04:07:54;-0.10;99.90
59313;DHT22;45084;51.486;7.366;2024-03-08T04:10:21;-0.10;99.90
59313;DHT22;45084;51.486;7.366;2024-03-08T04:12:47;-0.20;99.90
59313;DHT22;45084;51.486;7.366;2024-03-08T04:15:16;-0.20;99.90
59313;DHT22;45084;51.486;7.366;2024-03-08T04:17:43;-0.30;99.90
59313;DHT22;45084;51.486;7.366;2024-03-08T04:20:11;-0.30;99.90
59313;DHT22;45084;51.486;7.366;2024-03-08T04:22:41;-0.30;99.90
59313;DHT22;45084;51.486;7.366;2024-03-08T04:25:10;-0.40;99.90
59313;DHT22;45084;51.486;7.366;2024-03-08T04:27:41;-0.50;99.90
59313;DHT22;45084;51.486;7.366;2024-03-08T04:30:08;-0.50;99.90
59313;DHT22;45084;51.486;7.366;2024-03-08T04:32:34;-0.50;99.90
59313;DHT22;45084;51.486;7.366;2024-03-08T04:35:00;-0.50;99.90
59313;DHT22;45084;51.486;7.366;2024-03-08T04:37:30;-0.50;99.90
59313;DHT22;45084;51.486;7.366;2024-03-08T04:39:57;-0.60;99.90
59313;DHT22;45084;51.486;7.366;2024-03-08T04:42:27;-0.70;99.90
59313;DHT22;45084;51.486;7.366;2024-03-08T04:44:55;-0.50;99.90
59313;DHT22;45084;51.486;7.366;2024-03-08T04:47:24;-0.60;99.90
59313;DHT22;45084;51.486;7.366;2024-03-08T04:49:50;-0.60;99.90
59313;DHT22;45084;51.486;7.366;2024-03-08T04:52:17;-0.60;99.90
59313;DHT22;45084;51.486;7.366;2024-03-08T04:54:45;-0.60;99.90
59313;DHT22;45084;51.486;7.366;2024-03-08T04:57:14;-0.60;99.90
59313;DHT22;45084;51.486;7.366;2024-03-08T04:59:39;-0.60;99.90
59313;DHT22;45084;51.486;7.366;2024-03-08T05:02:08;-0.70;99.90
59313;DHT22;45084;51.486;7.366;2024-03-08T05:04:39;-0.60;99.90
59313;DHT22;45084;51.486;7.366;2024-03-08T05:07:07;-0.50;99.90
59313;DHT22;45084;51.486;7.366;2024-03-08T05:09:34;-0.50;99.90
59313;DHT22;45084;51.486;7.366;2024-03-08T05:12:04;-0.70;99.90
59313;DHT22;45084;51.486;7.366;2024-03-08T05:14:31;-0.60;99.90
59313;DHT22;45084;51.486;7.366;2024-03-08T05:16:58;-0.70;99.90
59313;DHT22;45084;51.486;7.366;2024-03-08T05:19:25;-0.80;99.90
59313;DHT22;45084;51.486;7.366;2024-03-08T05:21:53;-0.80;99.90
59313;DHT22;45084;51.486;7.366;2024-03-08T05:24:19;-0.90;99.90
59313;DHT22;45084;51.486;7.366;2024-03-08T05:26:46;-0.90;99.90
59313;DHT22;45084;51.486;7.366;2024-03-08T05:29:14;-0.90;99.90
59313;DHT22;45084;51.486;7.366;2024-03-08T05:31:50;-0.90;99.90
59313;DHT22;45084;51.486;7.366;2024-03-08T05:34:18;-1.00;99.90
59313;DHT22;45084;51.486;7.366;2024-03-08T05:36:50;-1.00;99.90
59313;DHT22;45084;51.486;7.366;2024-03-08T05:39:17;-1.00;99.90
59313;DHT22;45084;51.486;7.366;2024-03-08T05:41:44;-1.10;99.90
59313;DHT22;45084;51.486;7.366;2024-03-08T05:44:11;-1.20;99.90
59313;DHT22;45084;51.486;7.366;2024-03-08T05:46:37;-1.30;99.90
59313;DHT22;45084;51.486;7.366;2024-03-08T05:49:03;-1.40;99.90
59313;DHT22;45084;51.486;7.366;2024-03-08T05:51:34;-1.30;99.90
59313;DHT22;45084;51.486;7.366;2024-03-08T05:54:02;-1.30;99.90
59313;DHT22;45084;51.486;7.366;2024-03-08T05:56:29;-1.30;99.90
59313;DHT22;45084;51.486;7.366;2024-03-08T05:58:55;-1.30;99.90
59313;DHT22;45084;51.486;7.366;2024-03-08T06:01:25;-1.40;99.90
59313;DHT22;45084;51.486;7.366;2024-03-08T06:03:54;-1.40;99.90
59313;DHT22;45084;51.486;7.366;2024-03-08T06:06:28;-1.50;99.90
59313;DHT22;45084;51.486;7.366;2024-03-08T06:08:59;-1.50;99.90
59313;DHT22;45084;51.486;7.366;2024-03-08T06:11:26;-1.60;99.90
59313;DHT22;45084;51.486;7.366;2024-03-08T06:13:56;-1.60;99.90
59313;DHT22;45084;51.486;7.366;2024-03-08T06:16:25;-1.60;99.90
59313;DHT22;45084;51.486;7.366;2024-03-08T06:18:56;-1.50;99.90
59313;DHT22;45084;51.486;7.366;2024-03-08T06:21:23;-1.50;99.90
59313;DHT22;45084;51.486;7.366;2024-03-08T06:23:48;-1.50;99.90
59313;DHT22;45084;51.486;7.366;2024-03-08T06:26:14;-1.40;99.90
59313;DHT22;45084;51.486;7.366;2024-03-08T06:28:43;-1.30;99.90
59313;DHT22;45084;51.486;7.366;2024-03-08T06:31:10;-1.30;99.90
59313;DHT22;45084;51.486;7.366;2024-03-08T06:33:37;-1.30;99.90
59313;DHT22;45084;51.486;7.366;2024-03-08T06:36:03;-1.10;99.90
59313;DHT22;45084;51.486;7.366;2024-03-08T06:38:29;-1.00;99.90
59313;DHT22;45084;51.486;7.366;2024-03-08T06:40:57;-0.90;99.90
59313;DHT22;45084;51.486;7.366;2024-03-08T06:43:22;-0.80;99.90
59313;DHT22;45084;51.486;7.366;2024-03-08T06:45:50;-0.70;99.90
59313;DHT22;45084;51.486;7.366;2024-03-08T06:48:19;-0.60;99.90
59313;DHT22;45084;51.486;7.366;2024-03-08T06:50:45;-0.50;99.90
59313;DHT22;45084;51.486;7.366;2024-03-08T06:53:13;-0.30;99.90
59313;DHT22;45084;51.486;7.366;2024-03-08T06:55:42;-0.10;99.90
59313;DHT22;45084;51.486;7.366;2024-03-08T06:58:13;0.00;99.90
59313;DHT22;45084;51.486;7.366;2024-03-08T07:00:40;0.10;99.90
59313;DHT22;45084;51.486;7.366;2024-03-08T07:03:11;0.20;99.90
59313;DHT22;45084;51.486;7.366;2024-03-08T07:05:42;0.40;99.90
59313;DHT22;45084;51.486;7.366;2024-03-08T07:08:08;0.60;99.90
59313;DHT22;45084;51.486;7.366;2024-03-08T07:10:34;0.60;99.90
59313;DHT22;45084;51.486;7.366;2024-03-08T07:13:01;0.70;99.90
59313;DHT22;45084;51.486;7.366;2024-03-08T07:15:30;0.90;99.90
59313;DHT22;45084;51.486;7.366;2024-03-08T07:17:57;0.90;99.90
59313;DHT22;45084;51.486;7.366;2024-03-08T07:20:28;1.10;99.90
59313;DHT22;45084;51.486;7.366;2024-03-08T07:22:57;1.10;99.90
59313;DHT22;45084;51.486;7.366;2024-03-08T07:25:24;1.20;99.90
59313;DHT22;45084;51.486;7.366;2024-03-08T07:27:53;1.30;99.90
59313;DHT22;45084;51.486;7.366;2024-03-08T07:30:22;1.60;99.90
59313;DHT22;45084;51.486;7.366;2024-03-08T07:33:07;1.70;99.90
59313;DHT22;45084;51.486;7.366;2024-03-08T07:35:34;1.60;99.90
59313;DHT22;45084;51.486;7.366;2024-03-08T07:38:04;1.80;99.90
59313;DHT22;45084;51.486;7.366;2024-03-08T07:40:31;1.90;99.90
59313;DHT22;45084;51.486;7.366;2024-03-08T07:42:58;2.00;99.90
59313;DHT22;45084;51.486;7.366;2024-03-08T07:45:24;2.10;99.90
59313;DHT22;45084;51.486;7.366;2024-03-08T07:47:52;2.30;99.90
59313;DHT22;45084;51.486;7.366;2024-03-08T07:50:20;2.40;99.90
59313;DHT22;45084;51.486;7.366;2024-03-08T07:53:03;2.40;99.90
59313;DHT22;45084;51.486;7.366;2024-03-08T07:55:34;2.60;99.90
59313;DHT22;45084;51.486;7.366;2024-03-08T07:58:02;2.60;99.90
59313;DHT22;45084;51.486;7.366;2024-03-08T08:00:30;2.80;99.90
59313;DHT22;45084;51.486;7.366;2024-03-08T08:02:59;2.90;99.90
59313;DHT22;45084;51.486;7.366;2024-03-08T08:05:27;2.90;99.90
59313;DHT22;45084;51.486;7.366;2024-03-08T08:07:54;3.00;99.90
59313;DHT22;45084;51.486;7.366;2024-03-08T08:10:19;3.10;99.90
59313;DHT22;45084;51.486;7.366;2024-03-08T08:12:51;3.10;99.90
59313;DHT22;45084;51.486;7.366;2024-03-08T08:15:20;3.20;99.90
59313;DHT22;45084;51.486;7.366;2024-03-08T08:17:47;3.30;99.90
59313;DHT22;45084;51.486;7.366;2024-03-08T08:20:16;3.40;99.90
59313;DHT22;45084;51.486;7.366;2024-03-08T08:22:49;3.50;99.90
59313;DHT22;45084;51.486;7.366;2024-03-08T08:25:16;3.60;99.90
59313;DHT22;45084;51.486;7.366;2024-03-08T08:27:44;3.60;99.90
59313;DHT22;45084;51.486;7.366;2024-03-08T08:30:11;3.50;99.90
59313;DHT22;45084;51.486;7.366;2024-03-08T08:32:40;3.60;99.90
59313;DHT22;45084;51.486;7.366;2024-03-08T08:35:10;3.60;99.90
59313;DHT22;45084;51.486;7.366;2024-03-08T08:37:41;3.70;99.90
59313;DHT22;45084;51.486;7.366;2024-03-08T08:40:08;3.90;99.90
59313;DHT22;45084;51.486;7.366;2024-03-08T08:42:41;4.10;99.90
59313;DHT22;45084;51.486;7.366;2024-03-08T08:45:09;4.30;99.90
59313;DHT22;45084;51.486;7.366;2024-03-08T08:47:39;4.40;99.90
59313;DHT22;45084;51.486;7.366;2024-03-08T08:50:09;4.60;99.90
59313;DHT22;45084;51.486;7.366;2024-03-08T08:52:39;4.60;99.90
59313;DHT22;45084;51.486;7.366;2024-03-08T08:55:06;4.70;99.90
59313;DHT22;45084;51.486;7.366;2024-03-08T08:57:35;4.90;99.90
59313;DHT22;45084;51.486;7.366;2024-03-08T09:00:02;4.90;99.90
59313;DHT22;45084;51.486;7.366;2024-03-08T09:02:33;5.00;99.90
59313;DHT22;45084;51.486;7.366;2024-03-08T09:05:00;5.00;99.90
59313;DHT22;45084;51.486;7.366;2024-03-08T09:07:28;5.00;99.90
59313;DHT22;45084;51.486;7.366;2024-03-08T09:09:55;4.90;99.90
59313;DHT22;45084;51.486;7.366;2024-03-08T09:12:26;4.90;99.90
59313;DHT22;45084;51.486;7.366;2024-03-08T09:14:55;5.10;99.90
59313;DHT22;45084;51.486;7.366;2024-03-08T09:17:22;5.00;99.90
59313;DHT22;45084;51.486;7.366;2024-03-08T09:19:50;5.10;99.90
59313;DHT22;45084;51.486;7.366;2024-03-08T09:22:16;5.30;99.90
59313;DHT22;45084;51.486;7.366;2024-03-08T09:24:44;5.50;99.90
59313;DHT22;45084;51.486;7.366;2024-03-08T09:27:12;5.40;99.90
59313;DHT22;45084;51.486;7.366;2024-03-08T09:29:40;5.40;99.90
59313;DHT22;45084;51.486;7.366;2024-03-08T09:32:08;5.40;99.90
59313;DHT22;45084;51.486;7.366;2024-03-08T09:34:34;5.40;99.90
59313;DHT22;45084;51.486;7.366;2024-03-08T09:37:00;5.60;99.90
59313;DHT22;45084;51.486;7.366;2024-03-08T09:39:27;5.50;99.90
59313;DHT22;45084;51.486;7.366;2024-03-08T09:41:56;5.40;99.90
59313;DHT22;45084;51.486;7.366;2024-03-08T09:44:23;5.60;99.90
59313;DHT22;45084;51.486;7.366;2024-03-08T09:46:52;5.60;99.90
59313;DHT22;45084;51.486;7.366;2024-03-08T09:49:19;5.80;99.90
59313;DHT22;45084;51.486;7.366;2024-03-08T09:51:53;6.00;99.90
59313;DHT22;45084;51.486;7.366;2024-03-08T09:54:24;6.00;99.90
59313;DHT22;45084;51.486;7.366;2024-03-08T09:56:54;6.10;99.90
59313;DHT22;45084;51.486;7.366;2024-03-08T09:59:21;6.00;99.90
59313;DHT22;45084;51.486;7.366;2024-03-08T10:01:55;5.90;99.90
59313;DHT22;45084;51.486;7.366;2024-03-08T10:04:30;5.90;99.90
59313;DHT22;45084;51.486;7.366;2024-03-08T10:07:01;5.90;99.90
59313;DHT22;45084;51.486;7.366;2024-03-08T10:09:29;6.00;99.90
59313;DHT22;45084;51.486;7.366;2024-03-08T10:11:59;6.30;99.90
59313;DHT22;45084;51.486;7.366;2024-03-08T10:14:27;6.50;99.90
59313;DHT22;45084;51.486;7.366;2024-03-08T10:16:53;6.50;99.90
59313;DHT22;45084;51.486;7.366;2024-03-08T10:19:20;6.50;99.90
59313;DHT22;45084;51.486;7.366;2024-03-08T10:21:53;6.40;99.90
59313;DHT22;45084;51.486;7.366;2024-03-08T10:24:23;6.50;99.90
59313;DHT22;45084;51.486;7.366;2024-03-08T10:26:53;6.60;99.90
59313;DHT22;45084;51.486;7.366;2024-03-08T10:29:21;6.70;99.90
59313;DHT22;45084;51.486;7.366;2024-03-08T10:31:48;6.80;99.90
59313;DHT22;45084;51.486;7.366;2024-03-08T10:34:16;6.80;99.90
59313;DHT22;45084;51.486;7.366;2024-03-08T10:36:44;6.80;99.90
59313;DHT22;45084;51.486;7.366;2024-03-08T10:39:27;6.80;99.90
59313;DHT22;45084;51.486;7.366;2024-03-08T10:42:03;6.90;99.90
59313;DHT22;45084;51.486;7.366;2024-03-08T10:44:40;7.20;99.90
59313;DHT22;45084;51.486;7.366;2024-03-08T10:47:18;7.20;99.90
59313;DHT22;45084;51.486;7.366;2024-03-08T10:49:54;7.20;99.90
59313;DHT22;45084;51.486;7.366;2024-03-08T10:52:22;7.20;99.90
59313;DHT22;45084;51.486;7.366;2024-03-08T10:54:49;7.10;99.90
59313;DHT22;45084;51.486;7.366;2024-03-08T10:57:19;7.10;99.90
59313;DHT22;45084;51.486;7.366;2024-03-08T10:59:49;7.10;99.90
59313;DHT22;45084;51.486;7.366;2024-03-08T11:02:17;7.20;99.90
59313;DHT22;45084;51.486;7.366;2024-03-08T11:04:50;7.40;99.90
59313;DHT22;45084;51.486;7.366;2024-03-08T11:07:20;7.40;99.90
59313;DHT22;45084;51.486;7.366;2024-03-08T11:09:48;7.30;99.90
59313;DHT22;45084;51.486;7.366;2024-03-08T11:12:27;7.60;99.90
59313;DHT22;45084;51.486;7.366;2024-03-08T11:15:21;7.50;99.90
59313;DHT22;45084;51.486;7.366;2024-03-08T11:17:50;7.60;99.90
59313;DHT22;45084;51.486;7.366;2024-03-08T11:20:20;8.00;99.90
59313;DHT22;45084;51.486;7.366;2024-03-08T11:23:00;7.90;99.90
59313;DHT22;45084;51.486;7.366;2024-03-08T11:25:40;8.10;99.90
59313;DHT22;45084;51.486;7.366;2024-03-08T11:28:19;8.20;99.90
59313;DHT22;45084;51.486;7.366;2024-03-08T11:33:36;8.40;99.90
59313;DHT22;45084;51.486;7.366;2024-03-08T11:36:23;8.50;99.90
59313;DHT22;45084;51.486;7.366;2024-03-08T11:38:52;8.20;99.90
59313;DHT22;45084;51.486;7.366;2024-03-08T11:41:40;8.30;99.90
59313;DHT22;45084;51.486;7.366;2024-03-08T11:44:08;8.50;99.90
59313;DHT22;45084;51.486;7.366;2024-03-08T11:46:38;8.70;99.90
59313;DHT22;45084;51.486;7.366;2024-03-08T11:49:12;8.70;99.90
59313;DHT22;45084;51.486;7.366;2024-03-08T11:51:41;8.70;99.90
59313;DHT22;45084;51.486;7.366;2024-03-08T11:54:12;8.80;99.90
59313;DHT22;45084;51.486;7.366;2024-03-08T11:56:40;8.90;99.90
59313;DHT22;45084;51.486;7.366;2024-03-08T11:59:11;9.10;99.90
59313;DHT22;45084;51.486;7.366;2024-03-08T12:01:41;9.20;99.90
59313;DHT22;45084;51.486;7.366;2024-03-08T12:04:12;9.40;99.90
59313;DHT22;45084;51.486;7.366;2024-03-08T12:06:40;9.50;99.90
59313;DHT22;45084;51.486;7.366;2024-03-08T12:09:10;9.80;99.90
59313;DHT22;45084;51.486;7.366;2024-03-08T12:11:39;9.90;99.90
59313;DHT22;45084;51.486;7.366;2024-03-08T12:14:06;9.90;99.90
59313;DHT22;45084;51.486;7.366;2024-03-08T12:16:33;9.90;99.90
59313;DHT22;45084;51.486;7.366;2024-03-08T12:18:59;10.20;99.90
59313;DHT22;45084;51.486;7.366;2024-03-08T12:21:26;10.10;99.90
59313;DHT22;45084;51.486;7.366;2024-03-08T12:24:08;10.20;99.90
59313;DHT22;45084;51.486;7.366;2024-03-08T12:26:36;10.30;99.90
59313;DHT22;45084;51.486;7.366;2024-03-08T12:29:26;10.20;99.90
59313;DHT22;45084;51.486;7.366;2024-03-08T12:31:58;10.10;99.90
59313;DHT22;45084;51.486;7.366;2024-03-08T12:34:27;10.20;99.90
59313;DHT22;45084;51.486;7.366;2024-03-08T12:36:55;10.30;99.90
59313;DHT22;45084;51.486;7.366;2024-03-08T12:39:22;10.40;99.90
59313;DHT22;45084;51.486;7.366;2024-03-08T12:41:56;10.40;99.90
59313;DHT22;45084;51.486;7.366;2024-03-08T12:44:28;10.60;99.90
59313;DHT22;45084;51.486;7.366;2024-03-08T12:46:55;10.50;99.90
59313;DHT22;45084;51.486;7.366;2024-03-08T12:49:22;10.40;99.90
59313;DHT22;45084;51.486;7.366;2024-03-08T12:51:53;10.50;99.90
59313;DHT22;45084;51.486;7.366;2024-03-08T12:54:21;10.30;99.90
59313;DHT22;45084;51.486;7.366;2024-03-08T12:56:51;10.30;99.90
59313;DHT22;45084;51.486;7.366;2024-03-08T12:59:19;10.40;99.90
59313;DHT22;45084;51.486;7.366;2024-03-08T13:01:46;10.50;99.90
59313;DHT22;45084;51.486;7.366;2024-03-08T13:04:12;10.40;99.90
59313;DHT22;45084;51.486;7.366;2024-03-08T13:06:39;10.30;99.90
59313;DHT22;45084;51.486;7.366;2024-03-08T13:09:09;10.50;99.90
59313;DHT22;45084;51.486;7.366;2024-03-08T13:11:38;10.60;99.90
59313;DHT22;45084;51.486;7.366;2024-03-08T13:14:05;10.70;99.90
59313;DHT22;45084;51.486;7.366;2024-03-08T13:16:36;10.60;99.90
59313;DHT22;45084;51.486;7.366;2024-03-08T13:19:02;10.70;99.90
59313;DHT22;45084;51.486;7.366;2024-03-08T13:21:31;10.60;99.90
59313;DHT22;45084;51.486;7.366;2024-03-08T13:23:58;10.60;99.90
59313;DHT22;45084;51.486;7.366;2024-03-08T13:26:27;10.70;99.90
59313;DHT22;45084;51.486;7.366;2024-03-08T13:29:01;10.70;99.40
59313;DHT22;45084;51.486;7.366;2024-03-08T13:31:27;10.60;99.90
59313;DHT22;45084;51.486;7.366;2024-03-08T13:33:54;10.40;99.40
59313;DHT22;45084;51.486;7.366;2024-03-08T13:36:25;10.50;99.90
59313;DHT22;45084;51.486;7.366;2024-03-08T13:38:56;10.60;99.90
59313;DHT22;45084;51.486;7.366;2024-03-08T13:41:25;10.70;99.90
59313;DHT22;45084;51.486;7.366;2024-03-08T13:43:54;10.70;99.90
59313;DHT22;45084;51.486;7.366;2024-03-08T13:46:21;10.70;99.90
59313;DHT22;45084;51.486;7.366;2024-03-08T13:48:49;10.60;99.90
59313;DHT22;45084;51.486;7.366;2024-03-08T13:51:17;10.70;99.90
59313;DHT22;45084;51.486;7.366;2024-03-08T13:53:44;10.70;99.90
59313;DHT22;45084;51.486;7.366;2024-03-08T13:56:13;10.70;99.90
59313;DHT22;45084;51.486;7.366;2024-03-08T13:58:40;10.70;99.90
59313;DHT22;45084;51.486;7.366;2024-03-08T14:01:07;10.80;99.90
59313;DHT22;45084;51.486;7.366;2024-03-08T14:03:38;10.70;99.90
59313;DHT22;45084;51.486;7.366;2024-03-08T14:06:10;10.50;99.90
59313;DHT22;45084;51.486;7.366;2024-03-08T14:08:39;10.50;99.90
59313;DHT22;45084;51.486;7.366;2024-03-08T14:11:11;10.40;99.90
59313;DHT22;45084;51.486;7.366;2024-03-08T14:13:44;10.50;99.90
59313;DHT22;45084;51.486;7.366;2024-03-08T14:16:12;10.50;99.90
59313;DHT22;45084;51.486;7.366;2024-03-08T14:18:39;10.50;99.90
59313;DHT22;45084;51.486;7.366;2024-03-08T14:21:05;10.30;99.90
59313;DHT22;45084;51.486;7.366;2024-03-08T14:23:35;10.40;99.90
59313;DHT22;45084;51.486;7.366;2024-03-08T14:26:04;10.50;99.90
59313;DHT22;45084;51.486;7.366;2024-03-08T14:28:35;10.40;99.90
59313;DHT22;45084;51.486;7.366;2024-03-08T14:31:01;10.40;99.90
59313;DHT22;45084;51.486;7.366;2024-03-08T14:33:28;10.20;99.90
59313;DHT22;45084;51.486;7.366;2024-03-08T14:35:57;10.30;99.90
59313;DHT22;45084;51.486;7.366;2024-03-08T14:38:24;10.30;99.90
59313;DHT22;45084;51.486;7.366;2024-03-08T14:40:54;10.20;99.90
59313;DHT22;45084;51.486;7.366;2024-03-08T14:43:21;10.10;99.90
59313;DHT22;45084;51.486;7.366;2024-03-08T14:45:56;10.30;99.90
59313;DHT22;45084;51.486;7.366;2024-03-08T14:48:27;10.30;99.90
59313;DHT22;45084;51.486;7.366;2024-03-08T14:50:54;10.30;99.90
59313;DHT22;45084;51.486;7.366;2024-03-08T14:53:21;10.40;99.90
59313;DHT22;45084;51.486;7.366;2024-03-08T14:55:48;10.40;99.90
59313;DHT22;45084;51.486;7.366;2024-03-08T14:58:17;10.30;99.90
59313;DHT22;45084;51.486;7.366;2024-03-08T15:00:42;10.20;99.90
59313;DHT22;45084;51.486;7.366;2024-03-08T15:03:10;10.30;99.90
59313;DHT22;45084;51.486;7.366;2024-03-08T15:05:41;10.20;99.90
59313;DHT22;45084;51.486;7.366;2024-03-08T15:08:17;10.20;99.90
59313;DHT22;45084;51.486;7.366;2024-03-08T15:10:48;10.10;99.90
59313;DHT22;45084;51.486;7.366;2024-03-08T15:13:20;10.00;99.90
59313;DHT22;45084;51.486;7.366;2024-03-08T15:15:50;10.00;99.90
59313;DHT22;45084;51.486;7.366;2024-03-08T15:18:27;10.00;99.90
59313;DHT22;45084;51.486;7.366;2024-03-08T15:21:06;10.00;99.90
59313;DHT22;45084;51.486;7.366;2024-03-08T15:23:35;10.00;99.90
59313;DHT22;45084;51.486;7.366;2024-03-08T15:26:04;10.00;99.90
59313;DHT22;45084;51.486;7.366;2024-03-08T15:28:35;10.20;99.90
59313;DHT22;45084;51.486;7.366;2024-03-08T15:31:07;10.20;99.90
59313;DHT22;45084;51.486;7.366;2024-03-08T15:33:37;10.10;99.90
59313;DHT22;45084;51.486;7.366;2024-03-08T15:36:12;9.90;99.90
59313;DHT22;45084;51.486;7.366;2024-03-08T15:38:41;9.90;99.90
59313;DHT22;45084;51.486;7.366;2024-03-08T15:41:08;10.00;99.90
59313;DHT22;45084;51.486;7.366;2024-03-08T15:43:44;9.80;99.90
59313;DHT22;45084;51.486;7.366;2024-03-08T15:46:11;9.70;99.90
59313;DHT22;45084;51.486;7.366;2024-03-08T15:48:41;9.80;99.90
59313;DHT22;45084;51.486;7.366;2024-03-08T15:51:09;9.80;99.90
59313;DHT22;45084;51.486;7.366;2024-03-08T15:53:40;9.80;99.90